Flight Track Log - Related Links

Times and Time Zones

All times are in EDT time to prevent confusion due to time zone crossing. See the N6ZQ flight status page for this flight to view local times or setup timezone preferences in your user account.

Time Position Orientation Groundspeed Altitude Reporting Facility
EDT Latitude Longitude Course Direction KTS MPH feet Rate Location/Type
Sat 09:32:45 29.6867 -82.2900 332° Northwest 121 139 300  Level Jacksonville Center
Sat 09:33:46 29.7181 -82.3089 332° Northwest 150 173 1,300 873 Climbing Jacksonville Center
Sat 09:34:35 29.7536 -82.2992 13° North 182 209 1,900 931 Climbing Jacksonville Center
Sat 09:35:42 29.8058 -82.2847 13° North 168 193 3,100 1,078 Climbing Jacksonville Center
Sat 09:36:43 29.8494 -82.2675 19° North 164 189 4,200 1,082 Climbing Jacksonville Center
Sat 09:37:44 29.8911 -82.2481 22° Northeast 156 180 5,300 844 Climbing Jacksonville Center
Sat 09:38:51 29.9369 -82.2167 31° Northeast 175 201 6,000 844 Climbing Jacksonville Center
Sat 09:39:52 29.9806 -82.1828 34° Northeast 179 206 7,100 1,046 Climbing Jacksonville Center
Sat 09:40:40 30.0139 -82.1608 30° Northeast 170 196 7,900 881 Climbing Jacksonville Center
Sat 09:41:41 30.0556 -82.1367 27° Northeast 163 188 8,700 787 Climbing Jacksonville Center
Sat 09:42:42 30.1014 -82.1097 27° Northeast 183 211 9,500 639 Climbing Jacksonville Center
Sat 09:43:43 30.1469 -82.0806 29° Northeast 183 211 10,000 541 Climbing Jacksonville Center
Sat 09:44:44 30.1906 -82.0492 32° Northeast 190 219 10,600 492 Climbing Jacksonville Center
Sat 09:45:45 30.2406 -82.0150 31° Northeast 197 227 11,000 197 Climbing Jacksonville Center
Sat 09:46:46 30.2925 -81.9783 31° Northeast 215 247 11,000  Level Jacksonville Center
Sat 09:47:59 30.3569 -81.9344 30° Northeast 225 259 11,000  Level Jacksonville Center
Sat 09:49:00 30.4131 -81.8953 31° Northeast 224 258 11,000  Level Jacksonville Center
Sat 09:49:48 30.4544 -81.8661 31° Northeast 223 257 11,000  Level Jacksonville Center
Sat 09:50:50 30.5083 -81.8292 31° Northeast 220 253 11,000  Level Jacksonville Center
Sat 09:51:56 30.5667 -81.7853 33° Northeast 222 255 11,000  Level Jacksonville Center
Sat 09:52:51 30.6142 -81.7533 30° Northeast 224 258 11,000  Level Jacksonville Center
Sat 09:53:52 30.6683 -81.7139 32° Northeast 225 259 11,000  Level Jacksonville Center
Sat 09:55:11 30.7386 -81.6672 30° Northeast 225 259 11,000 -36 Level Jacksonville Center
Sat 09:56:38 30.8114 -81.6156 31° Northeast 228 262 10,900 -41 Descending Jacksonville Center
Sat 09:57:38 30.8672 -81.5758 31° Northeast 228 262 10,900  Level Jacksonville Center
Sat 09:58:38 30.9192 -81.5364 33° Northeast 228 262 10,900  Level Jacksonville Center
Sat 09:59:38 30.9731 -81.4994 30° Northeast 228 262 10,900  Level Jacksonville Center
Sat 10:00:38 31.0269 -81.4622 31° Northeast 228 262 10,900  Level Jacksonville Center
Sat 10:01:38 31.0872 -81.4394 18° North 222 255 10,900  Level Jacksonville Center
Sat 10:02:38 31.1497 -81.4264 10° North 217 250 10,900  Level Jacksonville Center
Sat 10:03:38 31.2100 -81.4133 10° North 223 257 10,900  Level Jacksonville Center
Sat 10:04:38 31.2725 -81.4000 10° North 223 257 10,900  Level Jacksonville Center
Sat 10:05:38 31.3350 -81.3844 12° North 218 251 10,900 50 Level Jacksonville Center
Sat 10:06:38 31.4017 -81.3689 11° North 223 257 11,000 50 Climbing Jacksonville Center
Sat 10:07:38 31.4597 -81.3533 13° North 223 257 11,000  Level Jacksonville Center
Sat 10:08:38 31.5264 -81.3400 10° North 223 257 11,000  Level Jacksonville Center
Sat 10:09:38 31.5828 -81.3269 11° North 223 257 11,000  Level Jacksonville Center
Sat 10:10:38 31.6494 -81.3136 10° North 223 257 11,000  Level Jacksonville Center
Sat 10:11:38 31.7097 -81.2978 13° North 218 251 11,000  Level Jacksonville Center
Sat 10:12:38 31.7658 -81.2872 North 224 258 11,000  Level Jacksonville Center
Sat 10:13:38 31.8347 -81.2714 11° North 223 257 11,000 -50 Level Jacksonville Center
Sat 10:14:38 31.8928 -81.2556 13° North 217 250 10,900 -50 Descending Jacksonville Center
Sat 10:15:38 31.9575 -81.2422 10° North 217 250 10,900  Level Jacksonville Center
Sat 10:16:38 32.0178 -81.2289 11° North 217 250 10,900  Level Jacksonville Center
Sat 10:17:38 32.0803 -81.2131 12° North 222 255 10,900  Level Jacksonville Center
Sat 10:18:38 32.1447 -81.1997 10° North 222 255 10,900  Level Jacksonville Center
Sat 10:19:38 32.2028 -81.1692 24° Northeast 229 264 10,900  Level Jacksonville Center
Sat 10:20:38 32.2567 -81.1336 29° Northeast 229 264 10,900  Level Jacksonville Center
Sat 10:21:38 32.3147 -81.1006 26° Northeast 229 264 10,900  Level Jacksonville Center
Sat 10:22:38 32.3725 -81.0675 26° Northeast 219 252 10,900  Level Jacksonville Center
Sat 10:23:38 32.4286 -81.0342 27° Northeast 219 252 10,900  Level Jacksonville Center
Sat 10:24:38 32.4864 -81.0011 26° Northeast 224 258 10,900  Level Jacksonville Center
Sat 10:25:38 32.5444 -80.9703 24° Northeast 219 252 10,900  Level Jacksonville Center
Sat 10:26:38 32.6003 -80.9347 28° Northeast 219 252 10,900  Level Jacksonville Center
Sat 10:27:38 32.6561 -80.9039 25° Northeast 219 252 10,900  Level Jacksonville Center
Sat 10:28:38 32.7119 -80.8681 28° Northeast 219 252 10,900  Level Jacksonville Center
Sat 10:29:38 32.7697 -80.8347 26° Northeast 219 252 10,900  Level Jacksonville Center
Sat 10:30:38 32.8256 -80.8011 27° Northeast 219 252 10,900  Level Jacksonville Center
Sat 10:31:38 32.8814 -80.7678 27° Northeast 219 252 10,900  Level Jacksonville Center
Sat 10:32:38 32.9394 -80.7342 26° Northeast 219 252 10,900  Level Jacksonville Center
Sat 10:33:38 32.9972 -80.7006 26° Northeast 219 252 10,900  Level Jacksonville Center
Sat 10:34:38 33.0508 -80.6672 28° Northeast 219 252 10,900  Level Jacksonville Center
Sat 10:35:38 33.1086 -80.6333 26° Northeast 219 252 10,900  Level Jacksonville Center
Sat 10:36:38 33.1644 -80.5997 27° Northeast 219 252 10,900  Level Jacksonville Center
Sat 10:37:38 33.2222 -80.5658 26° Northeast 219 252 10,900  Level Jacksonville Center
Sat 10:38:38 33.2800 -80.5322 26° Northeast 219 252 10,900  Level Jacksonville Center
Sat 10:39:38 33.3378 -80.4958 28° Northeast 219 252 10,900  Level Jacksonville Center
Sat 10:40:38 33.3875 -80.4672 26° Northeast 219 252 10,900  Level Jacksonville Center
Sat 10:41:38 33.4453 -80.4331 26° Northeast 219 252 10,900  Level Jacksonville Center
Sat 10:42:38 33.5031 -80.3992 26° Northeast 219 252 10,900  Level Jacksonville Center
Sat 10:43:38 33.5586 -80.3628 29° Northeast 219 252 10,900  Level Jacksonville Center
Sat 10:44:38 33.6164 -80.3286 26° Northeast 219 252 10,900  Level Jacksonville Center
Sat 10:45:38 33.6742 -80.2944 26° Northeast 219 252 10,900  Level Jacksonville Center
Sat 10:46:38 33.7297 -80.2606 27° Northeast 219 252 10,900  Level Jacksonville Center
Sat 10:47:38 33.7894 -80.2261 26° Northeast 219 252 10,900  Level Jacksonville Center
Sat 10:48:38 33.8450 -80.1894 29° Northeast 219 252 10,900  Level Jacksonville Center
Sat 10:49:38 33.9028 -80.1553 26° Northeast 219 252 10,900  Level Jacksonville Center
Sat 10:50:38 33.9625 -80.1183 27° Northeast 224 258 10,900  Level Jacksonville Center
Sat 10:51:38 34.0200 -80.0839 26° Northeast 224 258 10,900  Level Jacksonville Center
Sat 10:52:38 34.0778 -80.0494 26° Northeast 224 258 10,900  Level Jacksonville Center
Sat 10:53:38 34.1353 -80.0125 28° Northeast 224 258 10,900  Level Jacksonville Center
Sat 10:54:38 34.1928 -79.9753 28° Northeast 224 258 10,900  Level Jacksonville Center
Sat 10:55:38 34.2525 -79.9433 24° Northeast 224 258 10,900  Level Jacksonville Center
Sat 10:56:38 34.3081 -79.9036 31° Northeast 224 258 10,900  Level Jacksonville Center
Sat 10:57:38 34.3697 -79.8714 23° Northeast 224 258 10,900  Level Jacksonville Center
Sat 10:58:38 34.4253 -79.8342 29° Northeast 224 258 10,900  Level Jacksonville Center
Sat 10:59:38 34.4847 -79.7969 27° Northeast 234 269 10,900 29 Level Jacksonville Center
Sat 11:02:05 34.6353 -79.7014 28° Northeast 243 280 11,000 29 Climbing Washington Center
Sat 11:03:06 34.6928 -79.6689 25° Northeast 238 274 11,000  Level Washington Center
Sat 11:04:07 34.7525 -79.6314 27° Northeast 238 274 11,000  Level Washington Center
Sat 11:05:08 34.8119 -79.5964 26° Northeast 233 268 11,000  Level Washington Center
Sat 11:06:06 34.8753 -79.5792 13° North 222 255 11,000  Level Washington Center
Sat 11:07:06 34.9364 -79.5619 13° North 222 255 11,000  Level Washington Center
Sat 11:08:06 34.9994 -79.5500 North 222 255 11,000  Level Washington Center
Sat 11:09:08 35.0625 -79.5328 13° North 222 255 11,000  Level Washington Center
Sat 11:10:06 35.1256 -79.5156 13° North 222 255 11,000  Level Washington Center
Sat 11:11:07 35.1853 -79.4803 26° Northeast 229 264 11,000  Level Washington Center
Sat 11:12:07 35.2450 -79.4400 29° Northeast 245 282 11,000  Level Washington Center
Sat 11:13:06 35.3025 -79.3994 30° Northeast 245 282 11,000  Level Washington Center
Sat 11:14:07 35.3561 -79.3611 30° Northeast 245 282 11,000  Level Washington Center
Sat 11:14:50 35.4069 -79.3306 26° Northeast 245 282 11,000  Level Washington Center
Sat 11:15:08 35.4242 -79.3186 29° Northeast 245 282 11,000  Level Washington Center
Sat 11:15:20 35.4306 -79.3111 44° Northeast 245 282 11,000  Level Washington Center
Sat 11:16:08 35.4753 -79.2828 27° Northeast 245 282 11,000  Level Washington Center
Sat 11:16:27 35.5031 -79.2636 29° Northeast 245 282 11,000  Level Washington Center
Sat 11:17:06 35.5350 -79.2419 29° Northeast 245 282 11,000  Level Washington Center
Sat 11:17:27 35.5606 -79.2228 31° Northeast 248 285 11,000  Level Washington Center
Sat 11:18:07 35.6031 -79.1939 29° Northeast 245 282 11,000  Level Washington Center
Sat 11:18:28 35.6222 -79.1847 21° North 247 284 11,000  Level Washington Center
Sat 11:19:05 35.6608 -79.1533 33° Northeast 245 282 11,000  Level Washington Center
Sat 11:19:30 35.6797 -79.1439 22° Northeast 245 282 11,000  Level Washington Center
Sat 11:20:06 35.7225 -79.1125 31° Northeast 245 282 11,000  Level Washington Center
Sat 11:20:30 35.7417 -79.1006 27° Northeast 244 281 11,000  Level Washington Center
Sat 11:21:07 35.7756 -79.0764 30° Northeast 245 282 11,000  Level Washington Center
Sat 11:21:31 35.8033 -79.0572 29° Northeast 245 282 11,000  Level Washington Center
Sat 11:22:07 35.8331 -79.0378 28° Northeast 245 282 11,000  Level Washington Center
Sat 11:22:32 35.8650 -79.0164 28° Northeast 244 281 11,000  Level Washington Center
Sat 11:23:08 35.8928 -78.9944 33° Northeast 245 282 11,000  Level Washington Center
Sat 11:23:33 35.9228 -78.9725 31° Northeast 245 282 11,000  Level Washington Center
Sat 11:24:06 35.9522 -78.9558 25° Northeast 245 282 11,000  Level Washington Center
Sat 11:24:34 35.9822 -78.9314 33° Northeast 248 285 11,000  Level Washington Center
Sat 11:25:47 36.0567 -78.8808 29° Northeast 247 284 11,000  Level Washington Center
Sat 11:27:30 36.1544 -78.8103 30° Northeast 270 311 11,000  Level Washington Center
Sat 11:28:30 36.2142 -78.7689 29° Northeast 257 296 11,000  Level Washington Center
Sat 11:29:31 36.2778 -78.7225 30° Northeast 243 280 11,000  Level Washington Center
Sat 11:30:31 36.3289 -78.6858 30° Northeast 243 280 11,000  Level Washington Center
Sat 11:31:32 36.3947 -78.6419 28° Northeast 238 274 11,000  Level Washington Center
Sat 11:32:30 36.4519 -78.6028 29° Northeast 238 274 11,000  Level Washington Center
Sat 11:33:30 36.5114 -78.5639 28° Northeast 238 274 11,000  Level Washington Center
Sat 11:34:30 36.5667 -78.5219 31° Northeast 233 268 11,000  Level Washington Center
Sat 11:35:31 36.6239 -78.4853 27° Northeast 233 268 11,000  Level Washington Center
Sat 11:36:32 36.6708 -78.4456 34° Northeast 233 268 11,000  Level Washington Center
Sat 11:37:30 36.7344 -78.4014 29° Northeast 233 268 11,000  Level Washington Center
Sat 11:38:30 36.7917 -78.3594 30° Northeast 233 268 11,000  Level Washington Center
Sat 11:39:32 36.8469 -78.3197 30° Northeast 233 268 11,000  Level Washington Center
Sat 11:40:30 36.9064 -78.2778 29° Northeast 233 268 11,000  Level Washington Center
Sat 11:41:30 36.9656 -78.2381 28° Northeast 233 268 11,000  Level Washington Center
Sat 11:42:31 37.0292 -78.1908 31° Northeast 233 268 11,000  Level Washington Center
Sat 11:43:31 37.0864 -78.1511 29° Northeast 233 268 11,000  Level Washington Center
Sat 11:44:31 37.1353 -78.1136 31° Northeast 228 262 11,000  Level Washington Center
Sat 11:45:31 37.1922 -78.0739 29° Northeast 233 268 11,000  Level Washington Center
Sat 11:46:32 37.2453 -78.0339 31° Northeast 233 268 11,000 -50 Level Washington Center
Sat 11:47:30 37.3131 -77.9864 29° Northeast 233 268 10,900 -51 Descending Washington Center
Sat 11:48:30 37.3681 -77.9464 30° Northeast 233 268 10,900 -248 Level Washington Center
Sat 11:49:31 37.4294 -77.9011 30° Northeast 233 268 10,400 -541 Descending Washington Center
Sat 11:50:32 37.4908 -77.8558 30° Northeast 238 274 9,800 -605 Descending Washington Center
Sat 11:51:30 37.5519 -77.8131 29° Northeast 238 274 9,200 -610 Descending Washington Center
Sat 11:52:30 37.6153 -77.7783 23° Northeast 244 281 8,600 -645 Descending Washington Center
Sat 11:53:31 37.6742 -77.7433 25° Northeast 244 281 7,900 -639 Descending Washington Center
Sat 11:54:32 37.7356 -77.7056 26° Northeast 239 275 7,300 -595 Descending Washington Center
Sat 11:55:32 37.7944 -77.6731 24° Northeast 239 275 6,700 -610 Descending Washington Center
Sat 11:56:30 37.8556 -77.6353 26° Northeast 239 275 6,100 -559 Descending Washington Center
Sat 11:57:30 37.9167 -77.6000 24° Northeast 239 275 5,600 -535 Descending Washington Center
Sat 11:59:07 38.0167 -77.5500 21° North 228 262 4,700 -535 Descending Potomac TRACON
Sat 12:00:07 38.0667 -77.5167 28° Northeast 215 247 4,200 -350 Descending Potomac TRACON
Sat 12:01:07 38.1167 -77.4833 28° Northeast 206 237 4,000 -100 Descending Potomac TRACON
Sat 12:02:07 38.1667 -77.4500 28° Northeast 190 219 4,000  Level Potomac TRACON
Sat 12:03:07 38.1833 -77.4000 67° East 186 214 4,000 -300 Level Potomac TRACON
Sat 12:04:07 38.2000 -77.3333 72° East 179 206 3,400 -496 Descending Potomac TRACON
Sat 12:05:08 38.2333 -77.2833 50° Northeast 190 219 3,000 -189 Descending Potomac TRACON
Sat 12:06:14 38.2667 -77.3000 339° North 160 184 3,000 -50 Level Potomac TRACON
Sat 12:07:08 38.2833 -77.3333 303° West 154 177 2,900 -470 Descending Potomac TRACON
Sat 12:08:09 38.3167 -77.3667 322° Northwest 153 176 2,100 -787 Descending Potomac TRACON

Login

Don't have an account? Register now (free) for customized features, flight alerts, and more!